Hunter River, Canada
Current Conditions -  °F | °C
As of 2:00 AM on Saturday 25 Oct 2014 (Local Time) from CYYG Reporting Station
Drizzle Drizzle  
Wind Chill: 50°   Ceiling: 200
Heat Index: 50°   Visibility: 0.5mi
Dew Point: 50°   Wind: 9mph
Humidity: 100%   Direction: 360°N
Pressure: 29.4"   Gusts: NA
Location:  46.35°N, 63.35°W
Report Text: CYYG 250500Z 36008KT 1/2SM R03/4500FT/U -DZ FG OVC002 10/10 A2940 RMK SF8 SLP958 DENSITY ALT 200FT
Loading
Personal Weather Stations






























Interactive Weather Map
Tropical Storm Tracking
New forecast layout! Learn more

10-Day Weather Forecast

Advertisements
Track Severe Weather on mobile